sensor_id;sensor_type;location;lat;lon;timestamp;pressure;altitude;pressure_sealevel;temperature;humidity
43814;BME280;29669;55.706;37.656;2023-04-25T00:01:55;99764.19;;;14.23;nan
43814;BME280;29669;55.706;37.656;2023-04-25T00:04:23;99772.44;;;14.26;nan
43814;BME280;29669;55.706;37.656;2023-04-25T00:06:53;99769.31;;;14.31;nan
43814;BME280;29669;55.706;37.656;2023-04-25T00:09:22;99764.69;;;14.33;nan
43814;BME280;29669;55.706;37.656;2023-04-25T00:11:49;99774.19;;;14.40;nan
43814;BME280;29669;55.706;37.656;2023-04-25T00:14:17;99779.69;;;14.45;nan
43814;BME280;29669;55.706;37.656;2023-04-25T00:16:45;99775.31;;;14.52;nan
43814;BME280;29669;55.706;37.656;2023-04-25T00:19:12;99767.13;;;14.55;nan
43814;BME280;29669;55.706;37.656;2023-04-25T00:21:41;99774.63;;;14.65;nan
43814;BME280;29669;55.706;37.656;2023-04-25T00:24:09;99757.00;;;14.73;nan
43814;BME280;29669;55.706;37.656;2023-04-25T00:26:37;99748.50;;;14.92;nan
43814;BME280;29669;55.706;37.656;2023-04-25T00:29:05;99761.41;;;15.28;nan
43814;BME280;29669;55.706;37.656;2023-04-25T00:31:32;99762.31;;;15.42;nan
43814;BME280;29669;55.706;37.656;2023-04-25T00:34:00;99763.88;;;15.36;nan
43814;BME280;29669;55.706;37.656;2023-04-25T00:36:28;99767.03;;;15.25;nan
43814;BME280;29669;55.706;37.656;2023-04-25T00:38:56;99768.13;;;15.09;nan
43814;BME280;29669;55.706;37.656;2023-04-25T00:41:25;99763.44;;;14.98;nan
43814;BME280;29669;55.706;37.656;2023-04-25T00:43:54;99766.75;;;14.86;nan
43814;BME280;29669;55.706;37.656;2023-04-25T00:46:23;99759.63;;;14.73;nan
43814;BME280;29669;55.706;37.656;2023-04-25T00:48:51;99772.59;;;14.60;nan
43814;BME280;29669;55.706;37.656;2023-04-25T00:51:21;99773.09;;;14.49;nan
43814;BME280;29669;55.706;37.656;2023-04-25T00:53:49;99772.97;;;14.36;nan
43814;BME280;29669;55.706;37.656;2023-04-25T00:56:18;99763.13;;;14.17;nan
43814;BME280;29669;55.706;37.656;2023-04-25T00:58:47;99761.97;;;14.05;nan
43814;BME280;29669;55.706;37.656;2023-04-25T01:01:15;99763.44;;;13.93;nan
43814;BME280;29669;55.706;37.656;2023-04-25T01:03:45;99769.78;;;13.84;nan
43814;BME280;29669;55.706;37.656;2023-04-25T01:06:14;99769.44;;;13.72;nan
43814;BME280;29669;55.706;37.656;2023-04-25T01:08:43;99767.94;;;13.63;nan
43814;BME280;29669;55.706;37.656;2023-04-25T01:11:10;99756.63;;;13.56;nan
43814;BME280;29669;55.706;37.656;2023-04-25T01:13:38;99755.53;;;13.51;nan
43814;BME280;29669;55.706;37.656;2023-04-25T01:16:06;99750.03;;;13.46;nan
43814;BME280;29669;55.706;37.656;2023-04-25T01:18:34;99748.81;;;13.42;nan
43814;BME280;29669;55.706;37.656;2023-04-25T01:21:07;99754.63;;;13.44;nan
43814;BME280;29669;55.706;37.656;2023-04-25T01:23:39;99757.22;;;13.44;nan
43814;BME280;29669;55.706;37.656;2023-04-25T01:26:09;99757.78;;;13.54;nan
43814;BME280;29669;55.706;37.656;2023-04-25T01:28:38;99753.00;;;13.57;nan
43814;BME280;29669;55.706;37.656;2023-04-25T01:31:12;99753.09;;;13.64;nan
43814;BME280;29669;55.706;37.656;2023-04-25T01:33:40;99741.75;;;13.71;nan
43814;BME280;29669;55.706;37.656;2023-04-25T01:36:08;99748.03;;;13.77;nan
43814;BME280;29669;55.706;37.656;2023-04-25T01:38:41;99741.25;;;13.82;nan
43814;BME280;29669;55.706;37.656;2023-04-25T01:41:14;99748.91;;;13.84;nan
43814;BME280;29669;55.706;37.656;2023-04-25T01:43:42;99750.34;;;13.86;nan
43814;BME280;29669;55.706;37.656;2023-04-25T01:46:11;99742.13;;;13.89;nan
43814;BME280;29669;55.706;37.656;2023-04-25T01:48:38;99742.56;;;13.93;nan
43814;BME280;29669;55.706;37.656;2023-04-25T01:51:06;99743.03;;;13.96;nan
43814;BME280;29669;55.706;37.656;2023-04-25T01:53:34;99733.38;;;13.97;nan
43814;BME280;29669;55.706;37.656;2023-04-25T01:56:04;99734.44;;;14.02;nan
43814;BME280;29669;55.706;37.656;2023-04-25T01:58:34;99731.03;;;14.02;nan
43814;BME280;29669;55.706;37.656;2023-04-25T02:01:17;99729.06;;;14.04;nan
43814;BME280;29669;55.706;37.656;2023-04-25T02:03:55;99727.44;;;14.03;nan
43814;BME280;29669;55.706;37.656;2023-04-25T02:06:29;99725.44;;;14.05;nan
43814;BME280;29669;55.706;37.656;2023-04-25T02:08:58;99717.00;;;14.03;nan
43814;BME280;29669;55.706;37.656;2023-04-25T02:11:25;99721.03;;;14.05;nan
43814;BME280;29669;55.706;37.656;2023-04-25T02:14:16;99723.47;;;14.07;nan
43814;BME280;29669;55.706;37.656;2023-04-25T02:16:54;99722.63;;;14.06;nan
43814;BME280;29669;55.706;37.656;2023-04-25T02:19:22;99728.28;;;14.10;nan
43814;BME280;29669;55.706;37.656;2023-04-25T02:21:50;99730.56;;;14.13;nan
43814;BME280;29669;55.706;37.656;2023-04-25T02:24:18;99723.97;;;14.17;nan
43814;BME280;29669;55.706;37.656;2023-04-25T02:26:46;99728.44;;;14.23;nan
43814;BME280;29669;55.706;37.656;2023-04-25T02:29:16;99735.00;;;14.34;nan
43814;BME280;29669;55.706;37.656;2023-04-25T02:31:44;99723.59;;;14.41;nan
43814;BME280;29669;55.706;37.656;2023-04-25T02:34:12;99720.88;;;14.49;nan
43814;BME280;29669;55.706;37.656;2023-04-25T02:36:39;99714.31;;;14.60;nan
43814;BME280;29669;55.706;37.656;2023-04-25T02:39:07;99727.66;;;14.71;nan
43814;BME280;29669;55.706;37.656;2023-04-25T02:41:35;99726.91;;;14.77;nan
43814;BME280;29669;55.706;37.656;2023-04-25T02:44:03;99720.53;;;14.86;nan
43814;BME280;29669;55.706;37.656;2023-04-25T02:46:30;99722.38;;;14.92;nan
43814;BME280;29669;55.706;37.656;2023-04-25T02:49:06;99729.47;;;14.98;nan
43814;BME280;29669;55.706;37.656;2023-04-25T02:51:35;99727.25;;;15.02;nan
43814;BME280;29669;55.706;37.656;2023-04-25T02:54:03;99735.94;;;15.09;nan
43814;BME280;29669;55.706;37.656;2023-04-25T02:56:35;99731.75;;;15.15;nan
43814;BME280;29669;55.706;37.656;2023-04-25T02:59:12;99731.81;;;15.21;nan
43814;BME280;29669;55.706;37.656;2023-04-25T03:01:40;99738.25;;;15.25;nan
43814;BME280;29669;55.706;37.656;2023-04-25T03:04:26;99740.69;;;15.27;nan
43814;BME280;29669;55.706;37.656;2023-04-25T03:06:54;99745.09;;;15.26;nan
43814;BME280;29669;55.706;37.656;2023-04-25T03:09:22;99734.00;;;15.18;nan
43814;BME280;29669;55.706;37.656;2023-04-25T03:11:51;99740.34;;;15.08;nan
43814;BME280;29669;55.706;37.656;2023-04-25T03:14:19;99743.16;;;15.07;nan
43814;BME280;29669;55.706;37.656;2023-04-25T03:16:47;99733.91;;;15.04;nan
43814;BME280;29669;55.706;37.656;2023-04-25T03:19:17;99742.34;;;15.06;nan
43814;BME280;29669;55.706;37.656;2023-04-25T03:21:45;99744.59;;;15.09;nan
43814;BME280;29669;55.706;37.656;2023-04-25T03:24:14;99738.34;;;15.10;nan
43814;BME280;29669;55.706;37.656;2023-04-25T03:26:41;99739.59;;;15.15;nan
43814;BME280;29669;55.706;37.656;2023-04-25T03:29:09;99745.03;;;15.13;nan
43814;BME280;29669;55.706;37.656;2023-04-25T03:31:38;99745.84;;;15.14;nan
43814;BME280;29669;55.706;37.656;2023-04-25T03:34:06;99745.22;;;15.12;nan
43814;BME280;29669;55.706;37.656;2023-04-25T03:36:34;99757.53;;;15.18;nan
43814;BME280;29669;55.706;37.656;2023-04-25T03:39:02;99752.53;;;15.23;nan
43814;BME280;29669;55.706;37.656;2023-04-25T03:41:31;99747.91;;;15.25;nan
43814;BME280;29669;55.706;37.656;2023-04-25T03:44:08;99741.25;;;15.22;nan
43814;BME280;29669;55.706;37.656;2023-04-25T03:46:36;99747.25;;;15.16;nan
43814;BME280;29669;55.706;37.656;2023-04-25T03:49:04;99752.03;;;15.06;nan
43814;BME280;29669;55.706;37.656;2023-04-25T03:51:51;99750.38;;;14.98;nan
43814;BME280;29669;55.706;37.656;2023-04-25T03:54:19;99736.81;;;14.88;nan
43814;BME280;29669;55.706;37.656;2023-04-25T03:56:55;99745.84;;;14.86;nan
43814;BME280;29669;55.706;37.656;2023-04-25T03:59:26;99742.19;;;14.80;nan
43814;BME280;29669;55.706;37.656;2023-04-25T04:01:54;99740.19;;;14.82;nan
43814;BME280;29669;55.706;37.656;2023-04-25T04:04:23;99741.00;;;14.83;nan
43814;BME280;29669;55.706;37.656;2023-04-25T04:06:51;99738.97;;;14.78;nan
43814;BME280;29669;55.706;37.656;2023-04-25T04:09:34;99738.19;;;14.84;nan
43814;BME280;29669;55.706;37.656;2023-04-25T04:12:07;99743.44;;;14.84;nan
43814;BME280;29669;55.706;37.656;2023-04-25T04:14:36;99746.09;;;14.91;nan
43814;BME280;29669;55.706;37.656;2023-04-25T04:17:04;99742.47;;;14.92;nan
43814;BME280;29669;55.706;37.656;2023-04-25T04:19:33;99753.34;;;14.95;nan
43814;BME280;29669;55.706;37.656;2023-04-25T04:22:07;99743.50;;;14.97;nan
43814;BME280;29669;55.706;37.656;2023-04-25T04:24:38;99746.13;;;14.97;nan
43814;BME280;29669;55.706;37.656;2023-04-25T04:27:08;99743.94;;;15.01;nan
43814;BME280;29669;55.706;37.656;2023-04-25T04:29:39;99742.34;;;15.06;nan
43814;BME280;29669;55.706;37.656;2023-04-25T04:32:16;99742.00;;;15.09;nan
43814;BME280;29669;55.706;37.656;2023-04-25T04:34:44;99752.25;;;15.11;nan
43814;BME280;29669;55.706;37.656;2023-04-25T04:37:16;99742.59;;;15.12;nan
43814;BME280;29669;55.706;37.656;2023-04-25T04:39:43;99748.88;;;15.17;nan
43814;BME280;29669;55.706;37.656;2023-04-25T04:42:23;99738.44;;;15.24;nan
43814;BME280;29669;55.706;37.656;2023-04-25T04:45:10;99740.47;;;15.28;nan
43814;BME280;29669;55.706;37.656;2023-04-25T04:47:58;99742.53;;;15.33;nan
43814;BME280;29669;55.706;37.656;2023-04-25T04:50:28;99735.72;;;15.38;nan
43814;BME280;29669;55.706;37.656;2023-04-25T04:53:13;99735.38;;;15.48;nan
43814;BME280;29669;55.706;37.656;2023-04-25T04:55:44;99738.00;;;15.54;nan
43814;BME280;29669;55.706;37.656;2023-04-25T04:58:28;99739.06;;;15.66;nan
43814;BME280;29669;55.706;37.656;2023-04-25T05:01:19;99734.66;;;15.73;nan
43814;BME280;29669;55.706;37.656;2023-04-25T05:04:07;99729.63;;;15.78;nan
43814;BME280;29669;55.706;37.656;2023-04-25T05:07:01;99733.09;;;15.85;nan
43814;BME280;29669;55.706;37.656;2023-04-25T05:09:48;99722.63;;;15.92;nan
43814;BME280;29669;55.706;37.656;2023-04-25T05:12:27;99729.50;;;15.99;nan
43814;BME280;29669;55.706;37.656;2023-04-25T05:15:15;99730.91;;;16.02;nan
43814;BME280;29669;55.706;37.656;2023-04-25T05:18:12;99734.16;;;16.04;nan
43814;BME280;29669;55.706;37.656;2023-04-25T05:20:45;99720.66;;;16.07;nan
43814;BME280;29669;55.706;37.656;2023-04-25T05:23:35;99726.91;;;16.13;nan
43814;BME280;29669;55.706;37.656;2023-04-25T05:26:11;99735.19;;;16.16;nan
43814;BME280;29669;55.706;37.656;2023-04-25T05:28:54;99731.56;;;16.17;nan
43814;BME280;29669;55.706;37.656;2023-04-25T05:31:48;99725.72;;;16.28;nan
43814;BME280;29669;55.706;37.656;2023-04-25T05:34:16;99725.53;;;16.36;nan
43814;BME280;29669;55.706;37.656;2023-04-25T05:36:51;99729.75;;;16.44;nan
43814;BME280;29669;55.706;37.656;2023-04-25T05:39:19;99726.97;;;16.58;nan
43814;BME280;29669;55.706;37.656;2023-04-25T05:42:07;99726.72;;;16.92;nan
43814;BME280;29669;55.706;37.656;2023-04-25T05:44:53;99717.16;;;17.24;nan
43814;BME280;29669;55.706;37.656;2023-04-25T05:47:29;99722.56;;;17.42;nan
43814;BME280;29669;55.706;37.656;2023-04-25T05:50:06;99718.09;;;17.56;nan
43814;BME280;29669;55.706;37.656;2023-04-25T05:52:50;99715.25;;;17.57;nan
43814;BME280;29669;55.706;37.656;2023-04-25T05:55:44;99711.28;;;17.48;nan
43814;BME280;29669;55.706;37.656;2023-04-25T05:58:26;99711.25;;;17.42;nan
43814;BME280;29669;55.706;37.656;2023-04-25T06:00:55;99708.63;;;17.42;nan
43814;BME280;29669;55.706;37.656;2023-04-25T06:03:23;99703.97;;;17.44;nan
43814;BME280;29669;55.706;37.656;2023-04-25T06:05:51;99695.91;;;17.45;nan
43814;BME280;29669;55.706;37.656;2023-04-25T06:08:19;99699.75;;;17.43;nan
43814;BME280;29669;55.706;37.656;2023-04-25T06:10:47;99688.44;;;17.49;nan
43814;BME280;29669;55.706;37.656;2023-04-25T06:13:15;99698.31;;;17.60;nan
43814;BME280;29669;55.706;37.656;2023-04-25T06:15:43;99697.72;;;17.58;nan
43814;BME280;29669;55.706;37.656;2023-04-25T06:18:11;99678.31;;;17.59;nan
43814;BME280;29669;55.706;37.656;2023-04-25T06:20:39;99680.72;;;17.60;nan
43814;BME280;29669;55.706;37.656;2023-04-25T06:23:08;99678.47;;;17.64;nan
43814;BME280;29669;55.706;37.656;2023-04-25T06:25:47;99669.75;;;17.70;nan
43814;BME280;29669;55.706;37.656;2023-04-25T06:28:15;99678.41;;;17.77;nan
43814;BME280;29669;55.706;37.656;2023-04-25T06:30:43;99682.22;;;17.81;nan
43814;BME280;29669;55.706;37.656;2023-04-25T06:33:16;99680.97;;;17.90;nan
43814;BME280;29669;55.706;37.656;2023-04-25T06:35:45;99675.50;;;17.92;nan
43814;BME280;29669;55.706;37.656;2023-04-25T06:38:16;99665.81;;;17.92;nan
43814;BME280;29669;55.706;37.656;2023-04-25T06:40:48;99669.81;;;17.95;nan
43814;BME280;29669;55.706;37.656;2023-04-25T06:43:16;99678.88;;;17.99;nan
43814;BME280;29669;55.706;37.656;2023-04-25T06:45:58;99675.03;;;18.01;nan
43814;BME280;29669;55.706;37.656;2023-04-25T06:48:29;99676.00;;;18.07;nan
43814;BME280;29669;55.706;37.656;2023-04-25T06:50:58;99675.34;;;18.11;nan
43814;BME280;29669;55.706;37.656;2023-04-25T06:53:26;99676.91;;;18.19;nan
43814;BME280;29669;55.706;37.656;2023-04-25T06:55:58;99673.88;;;18.22;nan
43814;BME280;29669;55.706;37.656;2023-04-25T06:58:35;99677.44;;;18.27;nan
43814;BME280;29669;55.706;37.656;2023-04-25T07:01:23;99679.38;;;18.38;nan
43814;BME280;29669;55.706;37.656;2023-04-25T07:03:51;99678.34;;;18.46;nan
43814;BME280;29669;55.706;37.656;2023-04-25T07:06:20;99671.41;;;18.51;nan
43814;BME280;29669;55.706;37.656;2023-04-25T07:08:47;99674.78;;;18.58;nan
43814;BME280;29669;55.706;37.656;2023-04-25T07:11:16;99677.41;;;18.58;nan
43814;BME280;29669;55.706;37.656;2023-04-25T07:13:43;99669.50;;;18.58;nan
43814;BME280;29669;55.706;37.656;2023-04-25T07:16:11;99668.66;;;18.64;nan
43814;BME280;29669;55.706;37.656;2023-04-25T07:18:39;99678.09;;;18.72;nan
43814;BME280;29669;55.706;37.656;2023-04-25T07:21:07;99673.78;;;18.77;nan
43814;BME280;29669;55.706;37.656;2023-04-25T07:23:36;99678.41;;;18.82;nan
43814;BME280;29669;55.706;37.656;2023-04-25T07:26:10;99680.38;;;18.87;nan
43814;BME280;29669;55.706;37.656;2023-04-25T07:28:49;99672.28;;;18.88;nan
43814;BME280;29669;55.706;37.656;2023-04-25T07:31:18;99672.63;;;18.92;nan
43814;BME280;29669;55.706;37.656;2023-04-25T07:33:46;99673.94;;;19.01;nan
43814;BME280;29669;55.706;37.656;2023-04-25T07:36:14;99664.47;;;19.00;nan
43814;BME280;29669;55.706;37.656;2023-04-25T07:38:44;99665.19;;;19.07;nan
43814;BME280;29669;55.706;37.656;2023-04-25T07:41:12;99666.34;;;19.11;nan
43814;BME280;29669;55.706;37.656;2023-04-25T07:43:40;99671.34;;;19.19;nan
43814;BME280;29669;55.706;37.656;2023-04-25T07:46:08;99667.59;;;19.26;nan
43814;BME280;29669;55.706;37.656;2023-04-25T07:48:37;99672.94;;;19.38;nan
43814;BME280;29669;55.706;37.656;2023-04-25T07:51:14;99672.03;;;19.44;nan
43814;BME280;29669;55.706;37.656;2023-04-25T07:53:54;99674.38;;;19.52;nan
43814;BME280;29669;55.706;37.656;2023-04-25T07:56:22;99675.41;;;19.51;nan
43814;BME280;29669;55.706;37.656;2023-04-25T07:58:52;99663.75;;;19.58;nan
43814;BME280;29669;55.706;37.656;2023-04-25T08:01:21;99674.47;;;19.75;nan
43814;BME280;29669;55.706;37.656;2023-04-25T08:04:01;99668.56;;;19.91;nan
43814;BME280;29669;55.706;37.656;2023-04-25T08:06:43;99671.13;;;20.09;nan
43814;BME280;29669;55.706;37.656;2023-04-25T08:09:17;99671.63;;;20.29;nan
43814;BME280;29669;55.706;37.656;2023-04-25T08:11:46;99665.69;;;20.45;nan
43814;BME280;29669;55.706;37.656;2023-04-25T08:14:16;99667.75;;;20.78;nan
43814;BME280;29669;55.706;37.656;2023-04-25T08:16:45;99667.72;;;21.13;nan
43814;BME280;29669;55.706;37.656;2023-04-25T08:19:13;99668.34;;;21.31;nan
43814;BME280;29669;55.706;37.656;2023-04-25T08:21:41;99664.81;;;21.54;nan
43814;BME280;29669;55.706;37.656;2023-04-25T08:24:14;99667.09;;;21.62;nan
43814;BME280;29669;55.706;37.656;2023-04-25T08:26:43;99660.16;;;21.44;nan
43814;BME280;29669;55.706;37.656;2023-04-25T08:29:15;99659.91;;;21.18;nan
43814;BME280;29669;55.706;37.656;2023-04-25T08:31:43;99654.78;;;20.88;nan
43814;BME280;29669;55.706;37.656;2023-04-25T08:34:13;99657.75;;;20.92;nan
43814;BME280;29669;55.706;37.656;2023-04-25T08:36:47;99652.47;;;21.03;nan
43814;BME280;29669;55.706;37.656;2023-04-25T08:39:41;99647.63;;;21.23;nan
43814;BME280;29669;55.706;37.656;2023-04-25T08:42:21;99654.75;;;21.23;nan
43814;BME280;29669;55.706;37.656;2023-04-25T08:44:53;99650.16;;;21.07;nan
43814;BME280;29669;55.706;37.656;2023-04-25T08:47:26;99643.63;;;20.98;nan
43814;BME280;29669;55.706;37.656;2023-04-25T08:49:58;99643.63;;;20.98;nan
43814;BME280;29669;55.706;37.656;2023-04-25T08:52:29;99641.69;;;20.93;nan
43814;BME280;29669;55.706;37.656;2023-04-25T08:55:03;99634.47;;;20.89;nan
43814;BME280;29669;55.706;37.656;2023-04-25T08:57:33;99628.28;;;20.83;nan
43814;BME280;29669;55.706;37.656;2023-04-25T09:00:02;99647.53;;;20.84;nan
43814;BME280;29669;55.706;37.656;2023-04-25T09:02:34;99627.25;;;20.84;nan
43814;BME280;29669;55.706;37.656;2023-04-25T09:05:02;99629.06;;;20.95;nan
43814;BME280;29669;55.706;37.656;2023-04-25T09:07:31;99622.06;;;21.01;nan
43814;BME280;29669;55.706;37.656;2023-04-25T09:09:59;99624.25;;;21.04;nan
43814;BME280;29669;55.706;37.656;2023-04-25T09:12:32;99625.25;;;21.14;nan
43814;BME280;29669;55.706;37.656;2023-04-25T09:15:08;99624.66;;;21.24;nan
43814;BME280;29669;55.706;37.656;2023-04-25T09:17:58;99626.31;;;21.41;nan
43814;BME280;29669;55.706;37.656;2023-04-25T09:20:41;99613.47;;;21.62;nan
43814;BME280;29669;55.706;37.656;2023-04-25T09:23:26;99613.50;;;21.78;nan
43814;BME280;29669;55.706;37.656;2023-04-25T09:25:57;99612.09;;;21.87;nan
43814;BME280;29669;55.706;37.656;2023-04-25T09:28:28;99615.84;;;22.08;nan
43814;BME280;29669;55.706;37.656;2023-04-25T09:31:03;99609.44;;;22.20;nan
43814;BME280;29669;55.706;37.656;2023-04-25T09:33:45;99590.19;;;22.41;nan
43814;BME280;29669;55.706;37.656;2023-04-25T09:36:14;99597.75;;;22.55;nan
43814;BME280;29669;55.706;37.656;2023-04-25T09:38:59;99594.19;;;22.61;nan
43814;BME280;29669;55.706;37.656;2023-04-25T09:41:31;99595.03;;;22.66;nan
43814;BME280;29669;55.706;37.656;2023-04-25T09:44:05;99585.38;;;22.77;nan
43814;BME280;29669;55.706;37.656;2023-04-25T09:46:40;99586.81;;;22.84;nan
43814;BME280;29669;55.706;37.656;2023-04-25T09:49:20;99584.41;;;22.83;nan
43814;BME280;29669;55.706;37.656;2023-04-25T09:51:59;99583.22;;;22.74;nan
43814;BME280;29669;55.706;37.656;2023-04-25T09:54:47;99589.94;;;22.60;nan
43814;BME280;29669;55.706;37.656;2023-04-25T09:57:24;99584.47;;;22.50;nan
43814;BME280;29669;55.706;37.656;2023-04-25T09:59:55;99586.09;;;22.34;nan
43814;BME280;29669;55.706;37.656;2023-04-25T10:02:26;99589.34;;;22.19;nan
43814;BME280;29669;55.706;37.656;2023-04-25T10:05:02;99577.97;;;22.19;nan
43814;BME280;29669;55.706;37.656;2023-04-25T10:07:38;99577.91;;;22.35;nan
43814;BME280;29669;55.706;37.656;2023-04-25T10:10:15;99578.44;;;22.54;nan
43814;BME280;29669;55.706;37.656;2023-04-25T10:12:44;99579.66;;;22.85;nan
43814;BME280;29669;55.706;37.656;2023-04-25T10:15:14;99583.97;;;23.12;nan
43814;BME280;29669;55.706;37.656;2023-04-25T10:17:43;99574.19;;;23.40;nan
43814;BME280;29669;55.706;37.656;2023-04-25T10:20:12;99582.63;;;23.63;nan
43814;BME280;29669;55.706;37.656;2023-04-25T10:22:47;99568.41;;;23.74;nan
43814;BME280;29669;55.706;37.656;2023-04-25T10:25:15;99561.31;;;23.80;nan
43814;BME280;29669;55.706;37.656;2023-04-25T10:27:45;99553.56;;;23.73;nan
43814;BME280;29669;55.706;37.656;2023-04-25T10:30:14;99564.47;;;23.77;nan
43814;BME280;29669;55.706;37.656;2023-04-25T10:32:44;99559.47;;;23.80;nan
43814;BME280;29669;55.706;37.656;2023-04-25T10:35:16;99559.13;;;23.72;nan
43814;BME280;29669;55.706;37.656;2023-04-25T10:40:26;99537.75;;;23.52;nan
43814;BME280;29669;55.706;37.656;2023-04-25T10:42:54;99531.72;;;23.56;nan
43814;BME280;29669;55.706;37.656;2023-04-25T10:45:22;99530.22;;;23.39;nan
43814;BME280;29669;55.706;37.656;2023-04-25T10:47:50;99533.50;;;22.97;nan
43814;BME280;29669;55.706;37.656;2023-04-25T10:50:18;99539.91;;;22.80;nan
43814;BME280;29669;55.706;37.656;2023-04-25T10:52:46;99528.81;;;22.83;nan
43814;BME280;29669;55.706;37.656;2023-04-25T10:55:14;99526.88;;;23.00;nan
43814;BME280;29669;55.706;37.656;2023-04-25T10:57:44;99520.16;;;23.14;nan
43814;BME280;29669;55.706;37.656;2023-04-25T11:00:16;99518.13;;;23.26;nan
43814;BME280;29669;55.706;37.656;2023-04-25T11:02:53;99517.47;;;23.35;nan
43814;BME280;29669;55.706;37.656;2023-04-25T11:05:34;99516.63;;;23.30;nan
43814;BME280;29669;55.706;37.656;2023-04-25T11:08:25;99503.59;;;23.28;nan
43814;BME280;29669;55.706;37.656;2023-04-25T11:11:01;99507.19;;;23.39;nan
43814;BME280;29669;55.706;37.656;2023-04-25T11:13:29;99495.06;;;23.48;nan
43814;BME280;29669;55.706;37.656;2023-04-25T11:15:58;99496.94;;;23.53;nan
43814;BME280;29669;55.706;37.656;2023-04-25T11:18:33;99490.47;;;23.70;nan
43814;BME280;29669;55.706;37.656;2023-04-25T11:21:02;99498.81;;;23.89;nan
43814;BME280;29669;55.706;37.656;2023-04-25T11:23:30;99492.03;;;24.03;nan
43814;BME280;29669;55.706;37.656;2023-04-25T11:25:58;99489.19;;;24.14;nan
43814;BME280;29669;55.706;37.656;2023-04-25T11:28:28;99479.19;;;24.32;nan
43814;BME280;29669;55.706;37.656;2023-04-25T11:30:56;99475.59;;;24.58;nan
43814;BME280;29669;55.706;37.656;2023-04-25T11:33:25;99474.88;;;24.82;nan
43814;BME280;29669;55.706;37.656;2023-04-25T11:35:54;99474.91;;;24.97;nan
43814;BME280;29669;55.706;37.656;2023-04-25T11:38:25;99469.34;;;25.09;nan
43814;BME280;29669;55.706;37.656;2023-04-25T11:40:55;99450.22;;;25.07;nan
43814;BME280;29669;55.706;37.656;2023-04-25T11:43:23;99453.94;;;25.06;nan
43814;BME280;29669;55.706;37.656;2023-04-25T11:45:50;99464.28;;;25.02;nan
43814;BME280;29669;55.706;37.656;2023-04-25T11:48:20;99456.06;;;24.99;nan
43814;BME280;29669;55.706;37.656;2023-04-25T11:50:50;99453.41;;;25.04;nan
43814;BME280;29669;55.706;37.656;2023-04-25T11:53:18;99455.03;;;25.15;nan
43814;BME280;29669;55.706;37.656;2023-04-25T11:55:46;99438.53;;;25.23;nan
43814;BME280;29669;55.706;37.656;2023-04-25T11:58:14;99435.91;;;25.13;nan
43814;BME280;29669;55.706;37.656;2023-04-25T12:00:42;99443.31;;;25.16;nan
43814;BME280;29669;55.706;37.656;2023-04-25T12:03:18;99441.47;;;25.16;nan
43814;BME280;29669;55.706;37.656;2023-04-25T12:05:46;99441.75;;;25.30;nan
43814;BME280;29669;55.706;37.656;2023-04-25T12:08:15;99425.00;;;25.50;nan
43814;BME280;29669;55.706;37.656;2023-04-25T12:10:46;99432.69;;;25.71;nan
43814;BME280;29669;55.706;37.656;2023-04-25T12:13:22;99423.91;;;25.71;nan
43814;BME280;29669;55.706;37.656;2023-04-25T12:15:51;99426.31;;;25.67;nan
43814;BME280;29669;55.706;37.656;2023-04-25T12:18:28;99417.25;;;25.68;nan
43814;BME280;29669;55.706;37.656;2023-04-25T12:20:56;99413.03;;;25.62;nan
43814;BME280;29669;55.706;37.656;2023-04-25T12:23:27;99407.72;;;25.52;nan
43814;BME280;29669;55.706;37.656;2023-04-25T12:25:56;99401.63;;;25.57;nan
43814;BME280;29669;55.706;37.656;2023-04-25T12:28:24;99404.78;;;25.64;nan
43814;BME280;29669;55.706;37.656;2023-04-25T12:30:59;99402.41;;;25.62;nan
43814;BME280;29669;55.706;37.656;2023-04-25T12:33:32;99395.22;;;25.68;nan
43814;BME280;29669;55.706;37.656;2023-04-25T12:36:00;99392.59;;;25.43;nan
43814;BME280;29669;55.706;37.656;2023-04-25T12:38:36;99382.75;;;25.18;nan
43814;BME280;29669;55.706;37.656;2023-04-25T12:41:04;99384.34;;;25.24;nan
43814;BME280;29669;55.706;37.656;2023-04-25T12:43:32;99365.47;;;25.46;nan
43814;BME280;29669;55.706;37.656;2023-04-25T12:46:00;99380.00;;;25.83;nan
43814;BME280;29669;55.706;37.656;2023-04-25T12:48:28;99366.59;;;26.19;nan
43814;BME280;29669;55.706;37.656;2023-04-25T12:50:56;99366.03;;;26.27;nan
43814;BME280;29669;55.706;37.656;2023-04-25T12:53:24;99362.88;;;26.15;nan
43814;BME280;29669;55.706;37.656;2023-04-25T12:55:51;99364.03;;;25.88;nan
43814;BME280;29669;55.706;37.656;2023-04-25T12:58:19;99360.41;;;25.54;nan
43814;BME280;29669;55.706;37.656;2023-04-25T13:00:47;99362.28;;;25.34;nan
43814;BME280;29669;55.706;37.656;2023-04-25T13:03:15;99354.59;;;25.27;nan
43814;BME280;29669;55.706;37.656;2023-04-25T13:05:43;99357.78;;;25.14;nan
43814;BME280;29669;55.706;37.656;2023-04-25T13:08:10;99354.09;;;24.85;nan
43814;BME280;29669;55.706;37.656;2023-04-25T13:10:41;99347.41;;;24.67;nan
43814;BME280;29669;55.706;37.656;2023-04-25T13:13:09;99349.78;;;24.59;nan
43814;BME280;29669;55.706;37.656;2023-04-25T13:15:36;99343.41;;;24.50;nan
43814;BME280;29669;55.706;37.656;2023-04-25T13:18:04;99337.53;;;24.38;nan
43814;BME280;29669;55.706;37.656;2023-04-25T13:20:35;99338.06;;;24.35;nan
43814;BME280;29669;55.706;37.656;2023-04-25T13:23:03;99331.72;;;24.41;nan
43814;BME280;29669;55.706;37.656;2023-04-25T13:25:31;99332.28;;;25.18;nan
43814;BME280;29669;55.706;37.656;2023-04-25T13:27:59;99317.03;;;26.28;nan
43814;BME280;29669;55.706;37.656;2023-04-25T13:30:26;99323.16;;;26.67;nan
43814;BME280;29669;55.706;37.656;2023-04-25T13:32:54;99322.72;;;26.55;nan
43814;BME280;29669;55.706;37.656;2023-04-25T13:35:24;99321.94;;;27.17;nan
43814;BME280;29669;55.706;37.656;2023-04-25T13:37:52;99310.22;;;28.68;nan